Barriere, Canada
Current Conditions -  °F | °C
As of 1:00 AM on Saturday 22 Nov 2014 (Local Time) from CYKA Reporting Station
Overcast Overcast  
Wind Chill: 31°   Ceiling: 5800
Heat Index: 37°   Visibility: 30mi
Dew Point: 32°   Wind: 8mph
Humidity: 81%   Direction: 110°ESE
Pressure: 29.26"   Gusts: NA
Location:  51.18°N, 120.13°W
Report Text: CYKA 220900Z 11007KT 30SM SCT012 BKN058 OVC150 03/00 A2926 RMK SF3SC4AC1 SLP919
Loading
Personal Weather Stations






























Interactive Weather Map New forecast layout! Learn more

10-Day Weather Forecast

Advertisements
Track Severe Weather on mobile